Terminal Aerodrome Forecast
Issued by NWS Missoula, MT

Home | Current Version | Previous Version | Text Only | Print | Product List | Glossary On
Versions: 1 2 3 4 5 6 7 8 9 10 11 12 13 14 15 16 17
000
FTUS45 KMSO 282331
TAFBTM
TAF
KBTM 282331Z 2900/2924 28020G30KT P6SM VCSH SCT050 BKN080
     FM290300 31008KT P6SM SCT080 BKN150
     FM292100 28012KT P6SM BKN250=

USA.gov is the U.S. government's official web portal to all federal, state and local government web resources and services.